Hauptseite
METAR-TAF:

METAR-TAF

Flughäfen :

Cairns Airport

Cairns, Australien

Breite: 16-53S, Länge: 145-45E, Höhe: 3 m

Beobachtung

Neuester Wetterbericht von vor 32 Minuten, um 08:00 UTC
Wind 11 kt aus Südost
Temperatur 21°C
Luftfeuchtigkeit 60%
Luftdruck 1018 hPa
Sichtweite 10 km oder mehr
Leicht bewölkt in der Höhe von 4500 ft

METAR: YBCS 210800Z 14011KT 9999 FEW045 21/13 Q1018

Zeit: 18:32 (08:32 UTC)

Prognose

Neuester Wetterbericht von vor 2 Stunden und 24 Minuten, um 06:08 UTC
Gültige Prognose vom 21 um 06 UTC bis 22 um 06 UTC
Wind 12 kt aus Südost
Sichtweite 10 km oder mehr
Leicht bewölkt in der Höhe von 4000 ft

TAF: YBCS 210608Z 2106/2206 14012KT 9999 FEW040

Wetterbeobachtungen und Prognosen von mehr als 4000 Flughäfen (METAR und TAF Bericht).

Die verfügbaren Stationen werden durch gelbe und rote Markierungen auf der Karte dargestellt.

Führen Sie die Maus auf sie, um den Namen der Station zu sehen.

Darauf klicken, um die Beobachtung von Wetterbeobachtungen und Prognosen zu sehen.

Um die Karte zu ändern : klicken Sie auf den grünen Tasten mit einem schwarzen Kreuz Zum Vergrößern, auf den grünen Button mit einem Gedankenstrich zu verkleinern, oder auf die grünen Pfeile für benachbarte Karten.


METAR-TAF: